Time;durP1;ratioP1;P1;durP2;ratioP2;P2;SDS_P1;SDS_P2;PMS_P1;PMS_P2;Temp;Humidity;BMP_temperature;BMP_pressure;BME280_temperature;BME280_humidity;BME280_pressure;Samples;Min_cycle;Max_cycle;Signal;HPM_P1;HPM_P2
2023/01/13 00:01:21;;;;;;;;;;;;;;;8.16;92.64;100281.53;5095288;28;19923;-79
2023/01/13 00:03:47;;;;;;;;;;;;;;;8.19;94.64;100289.22;5094953;28;19944;-79
2023/01/13 00:06:13;;;;;;;;;;;;;;;8.22;95.70;100288.25;5095302;28;19924;-79
2023/01/13 00:08:38;;;;;;;;;;;;;;;8.19;93.55;100291.00;5094749;28;19923;-79
2023/01/13 00:11:04;;;;;;;;;;;;;;;8.19;93.99;100281.41;5092469;28;20239;-79
2023/01/13 00:13:31;;;;;;;;;;;;;;;8.16;92.19;100271.09;5094334;28;20230;-78
2023/01/13 00:15:57;;;;;;;;;;;;;;;8.15;91.82;100287.66;5095887;28;20133;-79
2023/01/13 00:18:22;;;;;;;;;;;;;;;8.14;92.14;100285.13;5096091;28;19938;-78
2023/01/13 00:20:56;;;;;;;;;;;;;;;8.14;92.63;100285.13;5096401;28;19943;-79
2023/01/13 00:23:23;;;;;;;;;;;;;;;8.15;93.51;100278.97;5097190;28;19916;-79
2023/01/13 00:25:49;;;;;;;;;;;;;;;8.15;94.09;100287.66;5096826;28;19912;-79
2023/01/13 00:28:14;;;;;;;;;;;;;;;8.15;95.16;100285.06;5095612;28;20001;-79
2023/01/13 00:30:39;;;;;;;;;;;;;;;8.16;95.25;100278.06;5096740;28;19959;-78
2023/01/13 00:33:04;;;;;;;;;;;;;;;8.15;95.89;100285.06;5097202;28;19942;-79
2023/01/13 00:35:30;;;;;;;;;;;;;;;8.17;96.20;100274.56;5095723;28;19927;-79
2023/01/13 00:37:55;;;;;;;;;;;;;;;8.18;97.02;100264.03;5096704;28;19920;-79
2023/01/13 00:40:20;;;;;;;;;;;;;;;8.19;98.16;100270.13;5097181;28;19927;-79
2023/01/13 00:45:29;;;;;;;;;;;;;;;8.19;98.51;100275.34;5095587;28;20000;-78
2023/01/13 00:47:55;;;;;;;;;;;;;;;8.21;99.12;100265.69;5096622;28;19912;-79
2023/01/13 00:50:20;;;;;;;;;;;;;;;8.20;99.79;100257.00;5095982;28;20118;-79
2023/01/13 00:52:45;;;;;;;;;;;;;;;8.21;99.67;100261.31;5096635;28;19920;-79
2023/01/13 00:55:10;;;;;;;;;;;;;;;8.20;99.34;100243.97;5097080;28;19946;-79
2023/01/13 00:57:36;;;;;;;;;;;;;;;8.20;99.34;100243.97;5094746;28;19928;-79
2023/01/13 01:00:01;;;;;;;;;;;;;;;8.19;98.33;100231.84;5097537;28;19951;-79
2023/01/13 01:02:26;;;;;;;;;;;;;;;8.20;99.13;100246.56;5099119;28;20221;-79
2023/01/13 01:04:52;;;;;;;;;;;;;;;8.20;98.01;100246.56;5100481;28;20005;-79
2023/01/13 01:07:17;;;;;;;;;;;;;;;8.19;97.79;100251.88;5098859;28;19956;-78
2023/01/13 01:09:42;;;;;;;;;;;;;;;8.18;98.06;100252.78;5100960;28;19948;-79
2023/01/13 01:12:08;;;;;;;;;;;;;;;8.18;97.84;100274.47;5100821;28;19948;-79
2023/01/13 01:14:33;;;;;;;;;;;;;;;8.17;98.41;100254.53;5099609;28;19932;-79
2023/01/13 01:16:58;;;;;;;;;;;;;;;8.17;98.27;100248.47;5100765;28;19924;-78
2023/01/13 01:19:24;;;;;;;;;;;;;;;8.16;98.46;100258.03;5100003;28;19982;-79
2023/01/13 01:21:49;;;;;;;;;;;;;;;8.16;98.75;100239.78;5100025;28;19920;-79
2023/01/13 01:24:15;;;;;;;;;;;;;;;8.17;99.10;100232.84;5100048;28;19956;-79
2023/01/13 01:26:40;;;;;;;;;;;;;;;8.19;99.44;100233.63;5099902;28;19913;-79
2023/01/13 01:29:06;;;;;;;;;;;;;;;8.18;99.35;100235.34;5099767;28;19938;-79
2023/01/13 01:31:32;;;;;;;;;;;;;;;8.17;98.58;100248.47;5100026;28;20227;-78
2023/01/13 01:33:57;;;;;;;;;;;;;;;8.17;98.52;100248.47;5100340;28;19916;-79
2023/01/13 01:36:25;;;;;;;;;;;;;;;8.18;98.90;100240.56;5099892;28;20229;-79
2023/01/13 01:38:51;;;;;;;;;;;;;;;8.15;98.53;100234.63;5099626;28;20105;-78
2023/01/13 01:41:21;;;;;;;;;;;;;;;8.13;98.01;100237.31;5099686;28;19980;-79
2023/01/13 01:43:58;;;;;;;;;;;;;;;8.13;98.65;100234.72;5099341;28;20226;-79
2023/01/13 01:46:34;;;;;;;;;;;;;;;8.13;98.53;100250.38;5099722;28;20021;-79
2023/01/13 01:49:20;;;;;;;;;;;;;;;8.11;98.42;100251.31;5098469;28;19908;-79
2023/01/13 01:51:53;;;;;;;;;;;;;;;8.10;97.86;100242.66;5099350;28;19923;-78
2023/01/13 01:54:23;;;;;;;;;;;;;;;8.08;97.14;100244.47;5099880;28;19920;-79
2023/01/13 01:56:49;;;;;;;;;;;;;;;8.08;97.35;100253.13;5099406;28;19916;-79
2023/01/13 01:59:14;;;;;;;;;;;;;;;8.08;98.09;100252.31;5081309;28;20129;-79
2023/01/13 02:01:41;;;;;;;;;;;;;;;8.07;98.03;100246.22;5099051;28;20227;-79
2023/01/13 02:04:19;;;;;;;;;;;;;;;8.08;97.75;100247.94;5098562;28;20221;-79
2023/01/13 02:06:45;;;;;;;;;;;;;;;8.06;97.71;100249.75;5099069;28;19935;-79
2023/01/13 02:09:11;;;;;;;;;;;;;;;8.06;97.82;100247.13;5099555;28;20236;-79
2023/01/13 02:14:22;;;;;;;;;;;;;;;8.04;97.76;100222.88;5098762;28;19966;-79
2023/01/13 02:17:07;;;;;;;;;;;;;;;8.03;97.28;100213.34;5098947;28;20134;-79
2023/01/13 02:19:46;;;;;;;;;;;;;;;8.03;97.44;100229.00;5098202;28;19944;-79
2023/01/13 02:22:26;;;;;;;;;;;;;;;8.03;97.86;100202.91;5099378;28;19934;-79
2023/01/13 02:24:54;;;;;;;;;;;;;;;8.03;97.48;100212.50;5098852;28;20241;-79
2023/01/13 02:27:25;;;;;;;;;;;;;;;8.01;96.98;100216.94;5098898;28;19951;-79
2023/01/13 02:32:48;;;;;;;;;;;;;;;8.00;96.86;100217.84;5098473;28;19938;-79
2023/01/13 02:35:20;;;;;;;;;;;;;;;7.99;96.39;100221.38;5098744;28;19920;-79
2023/01/13 02:37:46;;;;;;;;;;;;;;;7.98;96.73;100224.88;5099023;28;20262;-79
2023/01/13 02:40:14;;;;;;;;;;;;;;;7.95;95.40;100220.66;5097662;28;19920;-79
2023/01/13 02:45:35;;;;;;;;;;;;;;;7.93;94.48;100232.03;5098502;28;20229;-79
2023/01/13 02:48:02;;;;;;;;;;;;;;;7.91;94.80;100226.88;5098651;28;19915;-79
2023/01/13 02:50:40;;;;;;;;;;;;;;;7.93;96.06;100217.25;5098884;28;20110;-79
2023/01/13 02:53:28;;;;;;;;;;;;;;;7.91;94.71;100229.47;5098675;28;20154;-80
2023/01/13 02:55:55;;;;;;;;;;;;;;;7.92;96.56;100219.91;5090064;28;20003;-79
2023/01/13 02:58:26;;;;;;;;;;;;;;;7.90;95.88;100216.53;5098449;28;19916;-79
2023/01/13 03:00:51;;;;;;;;;;;;;;;7.90;96.28;100217.38;5098099;28;20215;-79
2023/01/13 03:03:16;;;;;;;;;;;;;;;7.87;94.97;100213.09;5098357;28;19918;-79
2023/01/13 03:05:43;;;;;;;;;;;;;;;7.86;94.61;100227.06;5097933;28;19930;-79
2023/01/13 03:08:16;;;;;;;;;;;;;;;7.87;95.42;100238.34;5097030;28;19916;-79
2023/01/13 03:10:43;;;;;;;;;;;;;;;7.85;93.86;100227.13;5098258;28;19916;-79
2023/01/13 03:13:15;;;;;;;;;;;;;;;7.85;94.54;100237.56;5097994;28;20267;-79
2023/01/13 03:15:55;;;;;;;;;;;;;;;7.84;94.96;100223.69;5097915;28;19947;-79
2023/01/13 03:18:30;;;;;;;;;;;;;;;7.83;94.82;100227.19;5097929;28;19938;-79
2023/01/13 03:21:08;;;;;;;;;;;;;;;7.83;95.71;100235.00;5097795;28;19916;-79
2023/01/13 03:23:43;;;;;;;;;;;;;;;7.80;94.78;100219.47;5097385;28;19915;-79
2023/01/13 03:26:12;;;;;;;;;;;;;;;7.80;95.43;100226.44;5098174;28;19915;-79
2023/01/13 03:28:41;;;;;;;;;;;;;;;7.79;95.26;100220.38;5097108;28;19958;-80
2023/01/13 03:31:11;;;;;;;;;;;;;;;7.80;96.09;100209.03;5097921;28;19922;-80
2023/01/13 03:33:56;;;;;;;;;;;;;;;7.80;96.72;100206.44;5098069;28;19920;-79
2023/01/13 03:36:24;;;;;;;;;;;;;;;7.81;97.20;100222.94;5097292;28;19923;-79
2023/01/13 03:38:55;;;;;;;;;;;;;;;7.79;97.19;100223.00;5097369;28;19943;-79
2023/01/13 03:41:35;;;;;;;;;;;;;;;7.79;96.88;100201.31;5097495;28;19969;-80
2023/01/13 03:44:22;;;;;;;;;;;;;;;7.78;96.57;100207.41;5097497;28;19931;-79
2023/01/13 03:46:53;;;;;;;;;;;;;;;7.78;97.69;100213.47;5097350;28;19973;-79
2023/01/13 03:49:21;;;;;;;;;;;;;;;7.77;97.08;100218.75;5097335;28;19908;-79
2023/01/13 03:51:48;;;;;;;;;;;;;;;7.77;97.21;100213.56;5097474;28;20161;-79
2023/01/13 03:54:16;;;;;;;;;;;;;;;7.74;96.00;100219.72;5097348;28;19970;-79
2023/01/13 03:56:46;;;;;;;;;;;;;;;7.73;95.07;100218.03;5096192;28;20223;-79
2023/01/13 03:59:14;;;;;;;;;;;;;;;7.74;95.45;100219.72;5097890;28;19990;-79
2023/01/13 04:01:42;;;;;;;;;;;;;;;7.71;94.93;100229.41;5097351;28;19938;-79
2023/01/13 04:04:18;;;;;;;;;;;;;;;7.70;95.26;100220.75;5097776;28;20238;-79
2023/01/13 04:07:02;;;;;;;;;;;;;;;7.71;95.27;100218.97;5095540;28;19924;-79
2023/01/13 04:09:56;;;;;;;;;;;;;;;7.69;96.13;100214.69;5097364;28;20247;-79
2023/01/13 04:12:26;;;;;;;;;;;;;;;7.68;95.84;100219.97;5083683;28;19908;-79
2023/01/13 04:14:52;;;;;;;;;;;;;;;7.65;94.81;100217.47;5097059;28;19942;-79
2023/01/13 04:17:17;;;;;;;;;;;;;;;7.67;95.85;100226.91;5096015;28;20247;-79
2023/01/13 04:19:42;;;;;;;;;;;;;;;7.65;95.55;100231.34;5095573;28;19912;-79
2023/01/13 04:22:08;;;;;;;;;;;;;;;7.63;96.20;100227.94;5096133;28;19916;-79
2023/01/13 04:24:33;;;;;;;;;;;;;;;7.63;95.45;100235.75;5078473;28;20000;-79
2023/01/13 04:26:58;;;;;;;;;;;;;;;7.61;95.50;100229.75;5096225;28;19919;-79
2023/01/13 04:29:23;;;;;;;;;;;;;;;7.61;95.76;100242.78;5097331;28;19920;-79
2023/01/13 04:31:49;;;;;;;;;;;;;;;7.60;95.80;100224.59;5097133;28;20242;-79
2023/01/13 04:34:14;;;;;;;;;;;;;;;7.61;96.01;100224.56;5092512;28;20205;-79
2023/01/13 04:36:39;;;;;;;;;;;;;;;7.62;96.68;100233.22;5081089;28;19921;-79
2023/01/13 04:39:04;;;;;;;;;;;;;;;7.60;95.79;100227.22;5079656;28;19920;-79
2023/01/13 04:41:56;;;;;;;;;;;;;;;7.61;96.50;100227.16;5080974;28;20195;-79
2023/01/13 04:44:18;;;;;;;;;;;;;;;7.61;97.10;100242.78;5080157;28;19908;-79
2023/01/13 04:46:43;;;;;;;;;;;;;;;7.62;97.60;100231.47;5079043;28;20190;-79
2023/01/13 04:49:08;;;;;;;;;;;;;;;7.62;97.32;100239.28;5080970;28;20387;-79
2023/01/13 04:51:33;;;;;;;;;;;;;;;7.61;96.88;100240.19;5080212;28;20183;-79
2023/01/13 04:53:58;;;;;;;;;;;;;;;7.62;97.12;100233.22;5080821;28;20139;-79
2023/01/13 04:56:24;;;;;;;;;;;;;;;7.60;96.43;100243.69;5080469;28;19916;-79
2023/01/13 04:58:49;;;;;;;;;;;;;;;7.59;93.70;100265.47;5079906;28;19912;-79
2023/01/13 05:01:14;;;;;;;;;;;;;;;7.59;92.93;100259.41;5078939;28;19936;-79
2023/01/13 05:03:39;;;;;;;;;;;;;;;7.60;91.79;100240.25;5079171;28;19958;-80
2023/01/13 05:06:05;;;;;;;;;;;;;;;7.58;90.86;100255.94;5079092;28;19920;-79
2023/01/13 05:08:30;;;;;;;;;;;;;;;7.57;89.22;100243.81;5080270;28;19930;-79
2023/01/13 05:10:58;;;;;;;;;;;;;;;7.56;88.89;100239.50;5080280;28;19999;-79
2023/01/13 05:18:52;;;;;;;;;;;;;;;7.59;92.38;100233.34;5080286;28;20104;-79
2023/01/13 05:26:45;;;;;;;;;;;;;;;7.52;88.00;100250.13;5079948;28;20066;-79
2023/01/13 05:29:10;;;;;;;;;;;;;;;7.50;87.96;100265.81;5079739;28;19913;-79
2023/01/13 05:31:35;;;;;;;;;;;;;;;7.49;88.27;100264.97;5078149;28;19958;-79
2023/01/13 05:34:00;;;;;;;;;;;;;;;7.48;87.00;100254.59;5079836;28;19938;-79
2023/01/13 05:36:26;;;;;;;;;;;;;;;7.47;87.37;100253.72;5079835;28;19920;-79
2023/01/13 05:38:51;;;;;;;;;;;;;;;7.47;87.80;100248.50;5079714;28;20400;-79
2023/01/13 05:44:05;;;;;;;;;;;;;;;7.44;87.65;100245.16;5069085;28;19913;-79
2023/01/13 05:46:30;;;;;;;;;;;;;;;7.43;89.25;100246.94;5078230;28;19919;-79
2023/01/13 05:48:55;;;;;;;;;;;;;;;7.42;88.32;100253.06;5079227;28;20283;-79
2023/01/13 05:51:24;;;;;;;;;;;;;;;7.41;87.35;100251.34;5079568;28;19919;-79
2023/01/13 05:53:50;;;;;;;;;;;;;;;7.41;87.37;100253.97;5092733;28;20022;-79
2023/01/13 05:56:16;;;;;;;;;;;;;;;7.40;87.79;100262.66;5099592;28;19908;-79
2023/01/13 05:58:42;;;;;;;;;;;;;;;7.42;88.67;100257.41;5099156;28;19912;-79
2023/01/13 06:01:07;;;;;;;;;;;;;;;7.43;90.28;100253.91;5098554;28;19943;-79
2023/01/13 06:03:33;;;;;;;;;;;;;;;7.43;91.17;100257.34;5099071;28;19979;-79
2023/01/13 06:06:00;;;;;;;;;;;;;;;7.42;88.93;100244.38;5099476;28;19914;-79
2023/01/13 06:08:26;;;;;;;;;;;;;;;7.41;89.52;100240.94;5098133;28;20204;-79
2023/01/13 06:10:51;;;;;;;;;;;;;;;7.42;88.79;100232.22;5098123;28;19919;-79
2023/01/13 06:13:17;;;;;;;;;;;;;;;7.44;90.33;100226.94;5098865;28;19915;-79
2023/01/13 06:15:42;;;;;;;;;;;;;;;7.42;89.48;100250.47;5097619;28;19955;-79
2023/01/13 06:18:07;;;;;;;;;;;;;;;7.43;89.55;100246.94;5098074;28;19920;-79
2023/01/13 06:20:33;;;;;;;;;;;;;;;7.42;88.73;100250.47;5098689;28;19920;-79
2023/01/13 06:22:59;;;;;;;;;;;;;;;7.42;88.65;100253.06;5097922;28;19926;-79
2023/01/13 06:25:27;;;;;;;;;;;;;;;7.44;88.73;100253.00;5099073;28;19947;-79
2023/01/13 06:27:53;;;;;;;;;;;;;;;7.43;89.04;100267.78;5099153;28;19923;-79
2023/01/13 06:30:18;;;;;;;;;;;;;;;7.44;88.66;100255.59;5099102;28;19908;-79
2023/01/13 06:32:44;;;;;;;;;;;;;;;7.45;87.81;100259.91;5098452;28;19916;-79
2023/01/13 06:35:12;;;;;;;;;;;;;;;7.45;87.95;100254.69;5097888;28;19916;-79
2023/01/13 06:37:38;;;;;;;;;;;;;;;7.47;88.01;100260.69;5098737;28;19985;-79
2023/01/13 06:40:04;;;;;;;;;;;;;;;7.47;89.45;100258.94;5099020;28;20034;-79
2023/01/13 06:45:16;;;;;;;;;;;;;;;7.47;87.80;100266.75;5095723;28;19923;-79
2023/01/13 06:47:42;;;;;;;;;;;;;;;7.48;87.00;100272.84;5095114;28;19923;-79
2023/01/13 06:50:08;;;;;;;;;;;;;;;7.48;86.95;100273.69;5082495;28;19931;-79
2023/01/13 06:52:33;;;;;;;;;;;;;;;7.47;87.04;100284.16;5093798;28;19923;-79
2023/01/13 06:54:58;;;;;;;;;;;;;;;7.47;86.41;100271.97;5097987;28;19987;-79
2023/01/13 06:57:24;;;;;;;;;;;;;;;7.47;87.75;100277.16;5079221;28;19931;-79
2023/01/13 06:59:49;;;;;;;;;;;;;;;7.46;86.74;100280.69;5098339;28;19908;-79
2023/01/13 07:02:14;;;;;;;;;;;;;;;7.46;85.99;100272.03;5098365;28;20018;-79
2023/01/13 07:04:39;;;;;;;;;;;;;;;7.44;86.15;100274.72;5091669;28;19924;-79
2023/01/13 07:07:06;;;;;;;;;;;;;;;7.44;86.57;100285.13;5088785;28;20234;-79
2023/01/13 07:09:32;;;;;;;;;;;;;;;7.44;85.85;100282.53;5077846;28;19912;-79
2023/01/13 07:11:57;;;;;;;;;;;;;;;7.45;86.29;100268.56;5078009;28;19915;-80
2023/01/13 07:17:06;;;;;;;;;;;;;;;7.45;86.44;100285.97;5097293;28;19969;-79
2023/01/13 07:19:31;;;;;;;;;;;;;;;7.43;85.61;100286.03;5082614;28;19912;-79
2023/01/13 07:21:57;;;;;;;;;;;;;;;7.44;84.69;100277.31;5077495;28;20112;-79
2023/01/13 07:24:22;;;;;;;;;;;;;;;7.44;85.53;100284.25;5078931;28;20208;-78
2023/01/13 07:26:49;;;;;;;;;;;;;;;7.44;85.06;100282.53;5077197;28;19916;-79
2023/01/13 07:29:14;;;;;;;;;;;;;;;7.45;85.21;100307.66;5076970;28;19916;-79
2023/01/13 07:31:39;;;;;;;;;;;;;;;7.46;84.90;100298.94;5077284;28;19916;-79
2023/01/13 07:34:05;;;;;;;;;;;;;;;7.48;84.36;100298.88;5083991;28;19986;-79
2023/01/13 07:36:30;;;;;;;;;;;;;;;7.48;84.93;100291.91;5097573;28;19927;-79
2023/01/13 07:38:58;;;;;;;;;;;;;;;7.50;84.66;100310.09;5090087;28;20225;-79
2023/01/13 07:44:09;;;;;;;;;;;;;;;7.55;83.89;100313.41;5077138;28;20147;-80
2023/01/13 07:46:35;;;;;;;;;;;;;;;7.56;84.40;100328.09;5087522;28;19919;-79
2023/01/13 07:49:00;;;;;;;;;;;;;;;7.59;84.42;100301.09;5086467;28;19917;-79
2023/01/13 07:51:25;;;;;;;;;;;;;;;7.60;84.08;100321.88;5087433;28;19962;-79
2023/01/13 07:53:51;;;;;;;;;;;;;;;7.61;84.20;100320.13;5086756;28;20003;-79
2023/01/13 07:56:16;;;;;;;;;;;;;;;7.61;84.81;100317.53;5086130;28;19935;-79
2023/01/13 07:58:43;;;;;;;;;;;;;;;7.61;84.51;100328.78;5090496;28;20267;-79
2023/01/13 08:01:12;;;;;;;;;;;;;;;7.62;83.77;100327.03;5087336;28;20148;-79
2023/01/13 08:03:38;;;;;;;;;;;;;;;7.64;84.37;100327.81;5093006;28;19926;-79
2023/01/13 08:06:04;;;;;;;;;;;;;;;7.63;83.67;100331.34;5096046;28;20123;-79
2023/01/13 08:08:29;;;;;;;;;;;;;;;7.64;83.97;100348.66;5093294;28;19924;-79
2023/01/13 08:10:57;;;;;;;;;;;;;;;7.64;83.80;100357.38;5094175;28;20245;-79
2023/01/13 08:13:23;;;;;;;;;;;;;;;7.66;83.45;100363.38;5096305;28;19957;-79
2023/01/13 08:15:52;;;;;;;;;;;;;;;7.66;83.54;100342.50;5092904;28;19951;-79
2023/01/13 08:18:20;;;;;;;;;;;;;;;7.67;83.28;100353.78;5096831;28;19926;-79
2023/01/13 08:20:47;;;;;;;;;;;;;;;7.67;83.72;100362.44;5096543;28;20291;-79
2023/01/13 08:23:12;;;;;;;;;;;;;;;7.68;83.98;100355.50;5097196;28;20316;-79
2023/01/13 08:25:38;;;;;;;;;;;;;;;7.67;85.03;100377.25;5096653;28;19927;-79
2023/01/13 08:28:03;;;;;;;;;;;;;;;7.65;85.34;100363.41;5092756;28;19951;-79
2023/01/13 08:30:29;;;;;;;;;;;;;;;7.63;86.35;100357.41;5096475;28;20238;-79
2023/01/13 08:32:54;;;;;;;;;;;;;;;7.60;87.29;100380.97;5097626;28;20273;-79
2023/01/13 08:35:20;;;;;;;;;;;;;;;7.55;87.62;100372.47;5096671;28;19943;-79
2023/01/13 08:37:46;;;;;;;;;;;;;;;7.53;88.35;100382.09;5093976;28;19920;-79
2023/01/13 08:40:13;;;;;;;;;;;;;;;7.49;89.21;100384.81;5096254;28;19966;-79
2023/01/13 08:42:38;;;;;;;;;;;;;;;7.46;89.98;100382.31;5097068;28;19981;-79
2023/01/13 08:45:04;;;;;;;;;;;;;;;7.41;90.30;100384.22;5090716;28;20203;-80
2023/01/13 08:47:29;;;;;;;;;;;;;;;7.38;90.83;100384.31;5089223;28;19947;-80
2023/01/13 08:49:57;;;;;;;;;;;;;;;7.34;91.27;100382.75;5091491;28;19974;-79
2023/01/13 08:52:22;;;;;;;;;;;;;;;7.33;91.63;100388.88;5091758;28;20150;-79
2023/01/13 08:54:47;;;;;;;;;;;;;;;7.30;91.88;100394.19;5089614;28;19959;-79
2023/01/13 08:57:14;;;;;;;;;;;;;;;7.29;92.12;100393.34;5095284;28;20124;-79
2023/01/13 08:59:39;;;;;;;;;;;;;;;7.29;92.46;100397.66;5094849;28;19908;-79
2023/01/13 09:02:15;;;;;;;;;;;;;;;7.27;93.01;100400.31;5096965;28;19987;-79
2023/01/13 09:04:40;;;;;;;;;;;;;;;7.27;92.74;100407.28;5096148;28;20144;-80
2023/01/13 09:07:05;;;;;;;;;;;;;;;7.26;92.99;100409.06;5091711;28;19935;-79
2023/01/13 09:09:31;;;;;;;;;;;;;;;7.26;92.35;100436.88;5095066;28;19920;-80
2023/01/13 09:14:40;;;;;;;;;;;;;;;7.28;92.25;100419.44;5096214;28;20013;-79
2023/01/13 09:17:06;;;;;;;;;;;;;;;7.29;92.16;100415.91;5093554;28;19924;-79
2023/01/13 09:19:31;;;;;;;;;;;;;;;7.30;92.08;100412.41;5092462;28;20203;-79
2023/01/13 09:21:57;;;;;;;;;;;;;;;7.32;91.33;100425.38;5097479;28;19962;-79
2023/01/13 09:24:22;;;;;;;;;;;;;;;7.35;91.04;100431.34;5097178;28;19926;-79
2023/01/13 09:26:48;;;;;;;;;;;;;;;7.38;90.99;100425.16;5098746;28;19945;-79
2023/01/13 09:29:13;;;;;;;;;;;;;;;7.39;91.83;100419.91;5098479;28;19927;-79
2023/01/13 09:31:39;;;;;;;;;;;;;;;7.40;91.22;100418.97;5092941;28;19916;-79
2023/01/13 09:36:49;;;;;;;;;;;;;;;7.45;90.09;100443.13;5087045;28;19950;-79
2023/01/13 09:39:14;;;;;;;;;;;;;;;7.48;89.56;100465.66;5078103;28;19924;-79
2023/01/13 09:44:28;;;;;;;;;;;;;;;7.54;89.67;100455.00;5079496;28;19923;-79
2023/01/13 09:46:56;;;;;;;;;;;;;;;7.55;88.99;100466.28;5079270;28;19955;-79
2023/01/13 09:49:30;;;;;;;;;;;;;;;7.58;88.63;100479.22;5079082;28;20113;-79
2023/01/13 09:52:04;;;;;;;;;;;;;;;7.59;89.13;100460.06;5079234;28;20196;-79
2023/01/13 09:54:32;;;;;;;;;;;;;;;7.61;89.30;100481.72;5079505;28;20150;-79
2023/01/13 09:56:58;;;;;;;;;;;;;;;7.62;89.52;100479.06;5078247;28;20131;-79
2023/01/13 09:59:28;;;;;;;;;;;;;;;7.63;88.97;100490.34;5076352;28;19951;-79
2023/01/13 10:01:53;;;;;;;;;;;;;;;7.62;90.07;100486.88;5077927;28;19948;-79
2023/01/13 10:04:18;;;;;;;;;;;;;;;7.63;90.24;100511.19;5077823;28;19931;-79
2023/01/13 10:06:48;;;;;;;;;;;;;;;7.63;90.19;100501.59;5059612;28;19921;-79
2023/01/13 10:09:17;;;;;;;;;;;;;;;7.63;90.27;100504.19;5077017;28;19944;-79
2023/01/13 10:14:48;;;;;;;;;;;;;;;7.65;89.99;100496.34;5078859;28;19927;-79
2023/01/13 10:17:33;;;;;;;;;;;;;;;7.68;88.65;100514.50;5079324;28;19962;-79
2023/01/13 10:20:19;;;;;;;;;;;;;;;7.69;89.17;100524.88;5079724;28;19979;-79
2023/01/13 10:22:53;;;;;;;;;;;;;;;7.72;88.44;100520.44;5077579;28;20374;-79
2023/01/13 10:25:30;;;;;;;;;;;;;;;7.71;88.88;100522.19;5077686;28;20175;-79
2023/01/13 10:28:00;;;;;;;;;;;;;;;7.73;88.68;100529.97;5078770;28;19948;-79
2023/01/13 10:30:30;;;;;;;;;;;;;;;7.73;87.71;100541.25;5077326;28;19917;-79
2023/01/13 10:32:57;;;;;;;;;;;;;;;7.74;87.71;100532.53;5076708;28;19923;-79
2023/01/13 10:35:42;;;;;;;;;;;;;;;7.76;87.05;100514.22;5078611;28;20131;-79
2023/01/13 10:38:14;;;;;;;;;;;;;;;7.76;87.67;100545.50;5078994;28;20225;-79
2023/01/13 10:40:45;;;;;;;;;;;;;;;7.78;87.28;100522.84;5078491;28;19917;-79
2023/01/13 10:43:11;;;;;;;;;;;;;;;7.78;88.23;100544.53;5077543;28;20215;-79
2023/01/13 10:45:36;;;;;;;;;;;;;;;7.77;87.88;100557.66;5077864;28;19920;-79
2023/01/13 10:48:04;;;;;;;;;;;;;;;7.80;86.30;100534.06;5078698;28;20324;-79
2023/01/13 10:50:30;;;;;;;;;;;;;;;7.78;87.52;100539.31;5077842;28;19920;-79
2023/01/13 10:53:14;;;;;;;;;;;;;;;7.81;86.90;100554.03;5077654;28;19935;-79
2023/01/13 10:55:40;;;;;;;;;;;;;;;7.81;86.77;100562.69;5076826;28;20007;-79
2023/01/13 10:58:20;;;;;;;;;;;;;;;7.83;86.80;100568.69;5078446;28;19971;-79
2023/01/13 11:00:48;;;;;;;;;;;;;;;7.83;86.39;100573.91;5077583;28;19947;-79
2023/01/13 11:03:21;;;;;;;;;;;;;;;7.84;86.57;100570.41;5078107;28;19920;-79
2023/01/13 11:05:51;;;;;;;;;;;;;;;7.87;86.06;100578.13;5076612;28;19955;-79
2023/01/13 11:08:18;;;;;;;;;;;;;;;7.89;86.65;100575.47;5077986;28;20244;-79
2023/01/13 11:10:45;;;;;;;;;;;;;;;7.89;86.81;100554.59;5076530;28;19915;-79
2023/01/13 11:13:15;;;;;;;;;;;;;;;7.90;86.49;100586.75;5078460;28;20152;-79
2023/01/13 11:15:59;;;;;;;;;;;;;;;7.92;86.49;100574.53;5076385;28;19928;-79
2023/01/13 11:18:36;;;;;;;;;;;;;;;7.92;87.22;100551.91;5077992;28;19989;-79
2023/01/13 11:21:05;;;;;;;;;;;;;;;7.93;87.36;100581.44;5078278;28;19999;-79
2023/01/13 11:23:36;;;;;;;;;;;;;;;7.94;86.98;100577.94;5078027;28;19917;-79
2023/01/13 11:26:13;;;;;;;;;;;;;;;7.94;86.42;100586.59;5077973;28;19909;-79
2023/01/13 11:28:46;;;;;;;;;;;;;;;7.95;86.66;100605.69;5077344;28;19916;-79
2023/01/13 11:31:25;;;;;;;;;;;;;;;7.95;86.73;100587.44;5076764;28;20192;-79
2023/01/13 11:34:11;;;;;;;;;;;;;;;7.94;86.82;100622.25;5077301;28;20277;-79
2023/01/13 11:36:44;;;;;;;;;;;;;;;7.95;86.47;100605.69;5076887;28;19924;-79
2023/01/13 11:39:19;;;;;;;;;;;;;;;7.95;87.37;100606.56;5078054;28;19912;-79
2023/01/13 11:42:19;;;;;;;;;;;;;;;7.96;87.85;100612.63;5077654;28;19970;-79
2023/01/13 11:44:53;;;;;;;;;;;;;;;7.95;87.76;100611.78;5077436;28;19916;-79
2023/01/13 11:47:20;;;;;;;;;;;;;;;7.94;86.20;100620.50;5078020;28;19944;-79
2023/01/13 11:49:47;;;;;;;;;;;;;;;7.96;87.40;100617.84;5076025;28;20100;-79
2023/01/13 11:52:30;;;;;;;;;;;;;;;7.95;86.22;100632.66;5077706;28;19912;-79
2023/01/13 11:55:01;;;;;;;;;;;;;;;7.96;85.60;100626.50;5077567;28;19927;-79
2023/01/13 11:57:34;;;;;;;;;;;;;;;7.99;84.60;100654.25;5076276;28;19951;-79
2023/01/13 11:59:59;;;;;;;;;;;;;;;7.99;85.72;100634.25;5076261;28;19916;-79
2023/01/13 12:02:43;;;;;;;;;;;;;;;8.01;86.88;100628.97;5077869;28;19944;-79
2023/01/13 12:05:22;;;;;;;;;;;;;;;8.01;86.13;100636.81;5077645;28;19970;-79
2023/01/13 12:08:00;;;;;;;;;;;;;;;8.01;86.28;100640.25;5075660;28;19932;-79
2023/01/13 12:10:34;;;;;;;;;;;;;;;8.01;85.51;100644.63;5077261;28;19926;-79
2023/01/13 12:12:59;;;;;;;;;;;;;;;8.03;86.06;100663.69;5077474;28;19920;-79
2023/01/13 12:15:34;;;;;;;;;;;;;;;8.03;85.69;100667.13;5076991;28;20002;-79
2023/01/13 12:18:02;;;;;;;;;;;;;;;8.04;86.67;100654.94;5077496;28;19916;-79
2023/01/13 12:20:34;;;;;;;;;;;;;;;8.02;85.65;100662.84;5075763;28;19916;-79
2023/01/13 12:23:01;;;;;;;;;;;;;;;8.01;85.98;100676.75;5076035;28;19908;-79
2023/01/13 12:25:31;;;;;;;;;;;;;;;8.00;85.33;100662.00;5076913;28;19916;-79
2023/01/13 12:28:03;;;;;;;;;;;;;;;8.02;84.33;100688.91;5075631;28;19931;-79
2023/01/13 12:30:38;;;;;;;;;;;;;;;8.03;86.43;100690.59;5076817;28;20171;-79
2023/01/13 12:33:42;;;;;;;;;;;;;;;8.03;84.18;100674.13;5077059;28;19966;-79
2023/01/13 12:36:11;;;;;;;;;;;;;;;8.04;83.61;100699.28;4998608;28;20250;-79
2023/01/13 12:38:45;;;;;;;;;;;;;;;8.04;84.91;100694.06;5016443;28;19948;-79
2023/01/13 12:41:10;;;;;;;;;;;;;;;8.05;85.73;100695.78;5048297;28;20111;-79
2023/01/13 12:46:21;;;;;;;;;;;;;;;8.03;84.95;100701.03;5088774;28;20174;-79
2023/01/13 12:48:55;;;;;;;;;;;;;;;8.05;85.66;100685.34;5093067;28;19916;-79
2023/01/13 12:51:24;;;;;;;;;;;;;;;8.04;84.71;100701.88;5091463;28;20251;-79
2023/01/13 12:53:50;;;;;;;;;;;;;;;8.05;84.87;100714.03;5092593;28;19992;-79
2023/01/13 12:56:26;;;;;;;;;;;;;;;8.05;85.14;100729.69;5081656;28;19928;-79
2023/01/13 12:59:12;;;;;;;;;;;;;;;8.06;85.03;100726.19;5093136;28;19978;-79
2023/01/13 13:01:37;;;;;;;;;;;;;;;8.06;84.14;100731.41;5090419;28;19920;-79
2023/01/13 13:04:06;;;;;;;;;;;;;;;8.06;85.77;100726.19;5099419;28;19927;-79
2023/01/13 13:06:35;;;;;;;;;;;;;;;8.05;86.46;100724.47;5095520;28;19920;-79
2023/01/13 13:09:17;;;;;;;;;;;;;;;8.03;85.29;100721.91;5080245;28;19951;-79
2023/01/13 13:14:36;;;;;;;;;;;;;;;8.04;85.32;100741.88;5090519;28;19912;-79
2023/01/13 13:17:02;;;;;;;;;;;;;;;8.03;85.19;100736.72;5089935;28;19908;-79
2023/01/13 13:19:30;;;;;;;;;;;;;;;8.06;85.48;100734.00;5083917;28;19955;-79
2023/01/13 13:22:11;;;;;;;;;;;;;;;8.07;85.85;100726.09;5080118;28;19916;-78
2023/01/13 13:24:36;;;;;;;;;;;;;;;8.09;86.85;100736.50;5090209;28;19944;-79
2023/01/13 13:27:20;;;;;;;;;;;;;;;8.09;85.67;100741.72;5089052;28;19947;-79
2023/01/13 13:29:53;;;;;;;;;;;;;;;8.10;85.88;100750.41;5088499;28;19958;-79
2023/01/13 13:32:37;;;;;;;;;;;;;;;8.10;86.21;100751.25;5088162;28;19915;-79
2023/01/13 13:35:21;;;;;;;;;;;;;;;8.11;86.65;100762.53;5088372;28;20373;-79
2023/01/13 13:46:46;;;;;;;;;;;;;;;8.09;86.38;100786.06;5088283;28;19923;-79
2023/01/13 13:49:16;;;;;;;;;;;;;;;8.10;86.73;100800.81;5089446;28;20219;-79
2023/01/13 13:51:48;;;;;;;;;;;;;;;8.11;85.21;100791.22;5087941;28;20473;-79
2023/01/13 13:54:16;;;;;;;;;;;;;;;8.11;86.08;100807.72;5080715;28;19912;-79
2023/01/13 13:56:43;;;;;;;;;;;;;;;8.11;86.05;100823.38;5093984;28;19965;-79